6N9 weather

Eagles Nest Airport
Potters Hill, North Carolina, United States

Public forecast

Using degrees Fahrenheit for public forecast. Weather courtesy of forecast.io.

Closest aviation weather report (METAR) to Eagles Nest Airport

Closest report is Albert J Ellis Airport, 10.1 nm (18.7 km) SSE. Retrieved 2020/06/03 10:56 UTC (54 minutes ago):

KOAJ 031056Z 22010KT 10SM BKN100 21/17 A3003 RMK AO2 SLP172 T02110172

Closest aviation forecast (TAF) to Eagles Nest Airport

Closest forecast is Albert J Ellis Airport, 10.1 nm (18.7 km) SSE. Retrieved 2020/06/03 06:40 UTC (5 hours ago):

TAF KOAJ 030538Z 0306/0406 22008G14KT P6SM FEW250 AMD LTD TO CLD VIS AND WIND